sensor_id;sensor_type;location;lat;lon;timestamp;P1;durP1;ratioP1;P2;durP2;ratioP2
68475;SDS011;55464;48.266;14.188;2022-09-13T00:00:06;7.45;;;5.25;;
68475;SDS011;55464;48.266;14.188;2022-09-13T00:02:32;5.57;;;4.72;;
68475;SDS011;55464;48.266;14.188;2022-09-13T00:04:58;5.65;;;4.65;;
68475;SDS011;55464;48.266;14.188;2022-09-13T00:07:23;5.13;;;4.63;;
68475;SDS011;55464;48.266;14.188;2022-09-13T00:09:49;5.65;;;4.45;;
68475;SDS011;55464;48.266;14.188;2022-09-13T00:12:15;6.13;;;4.60;;
68475;SDS011;55464;48.266;14.188;2022-09-13T00:14:40;5.63;;;4.55;;
68475;SDS011;55464;48.266;14.188;2022-09-13T00:17:06;5.40;;;4.88;;
68475;SDS011;55464;48.266;14.188;2022-09-13T00:19:32;6.00;;;5.28;;
68475;SDS011;55464;48.266;14.188;2022-09-13T00:21:58;7.35;;;5.07;;
68475;SDS011;55464;48.266;14.188;2022-09-13T00:24:23;6.05;;;4.85;;
68475;SDS011;55464;48.266;14.188;2022-09-13T00:26:49;6.13;;;4.55;;
68475;SDS011;55464;48.266;14.188;2022-09-13T00:29:15;5.45;;;4.65;;
68475;SDS011;55464;48.266;14.188;2022-09-13T00:31:41;6.25;;;4.72;;
68475;SDS011;55464;48.266;14.188;2022-09-13T00:34:06;7.35;;;5.45;;
68475;SDS011;55464;48.266;14.188;2022-09-13T00:36:32;9.73;;;5.30;;
68475;SDS011;55464;48.266;14.188;2022-09-13T00:38:58;6.45;;;5.38;;
68475;SDS011;55464;48.266;14.188;2022-09-13T00:41:24;7.18;;;5.43;;
68475;SDS011;55464;48.266;14.188;2022-09-13T00:43:57;6.05;;;5.10;;
68475;SDS011;55464;48.266;14.188;2022-09-13T00:46:32;8.00;;;5.07;;
68475;SDS011;55464;48.266;14.188;2022-09-13T00:49:00;6.00;;;4.90;;
68475;SDS011;55464;48.266;14.188;2022-09-13T00:51:32;5.78;;;4.78;;
68475;SDS011;55464;48.266;14.188;2022-09-13T00:53:58;5.38;;;4.57;;
68475;SDS011;55464;48.266;14.188;2022-09-13T00:56:35;5.90;;;4.72;;
68475;SDS011;55464;48.266;14.188;2022-09-13T01:02:17;7.97;;;4.53;;
68475;SDS011;55464;48.266;14.188;2022-09-13T01:04:43;7.22;;;4.70;;
68475;SDS011;55464;48.266;14.188;2022-09-13T01:07:10;5.53;;;4.38;;
68475;SDS011;55464;48.266;14.188;2022-09-13T01:09:39;7.57;;;4.70;;
68475;SDS011;55464;48.266;14.188;2022-09-13T01:14:42;5.95;;;4.57;;
68475;SDS011;55464;48.266;14.188;2022-09-13T01:17:09;7.13;;;4.60;;
68475;SDS011;55464;48.266;14.188;2022-09-13T01:19:35;5.55;;;4.18;;
68475;SDS011;55464;48.266;14.188;2022-09-13T01:30:36;4.75;;;4.28;;
68475;SDS011;55464;48.266;14.188;2022-09-13T01:41:19;5.63;;;4.80;;
68475;SDS011;55464;48.266;14.188;2022-09-13T01:49:37;5.80;;;4.50;;
68475;SDS011;55464;48.266;14.188;2022-09-13T01:55:22;6.97;;;4.05;;
68475;SDS011;55464;48.266;14.188;2022-09-13T01:58:15;6.53;;;4.50;;
68475;SDS011;55464;48.266;14.188;2022-09-13T02:00:55;5.53;;;4.70;;
68475;SDS011;55464;48.266;14.188;2022-09-13T02:03:35;7.72;;;5.25;;
68475;SDS011;55464;48.266;14.188;2022-09-13T02:06:06;6.97;;;4.80;;
68475;SDS011;55464;48.266;14.188;2022-09-13T02:08:40;7.05;;;4.47;;
68475;SDS011;55464;48.266;14.188;2022-09-13T02:11:21;6.15;;;4.88;;
68475;SDS011;55464;48.266;14.188;2022-09-13T02:13:53;9.57;;;4.88;;
68475;SDS011;55464;48.266;14.188;2022-09-13T02:16:41;5.78;;;4.55;;
68475;SDS011;55464;48.266;14.188;2022-09-13T02:19:14;8.98;;;4.60;;
68475;SDS011;55464;48.266;14.188;2022-09-13T02:21:53;5.63;;;4.45;;
68475;SDS011;55464;48.266;14.188;2022-09-13T02:26:57;5.22;;;4.32;;
68475;SDS011;55464;48.266;14.188;2022-09-13T02:31:54;9.48;;;4.50;;
68475;SDS011;55464;48.266;14.188;2022-09-13T02:34:48;4.88;;;4.38;;
68475;SDS011;55464;48.266;14.188;2022-09-13T02:37:18;5.35;;;4.70;;
68475;SDS011;55464;48.266;14.188;2022-09-13T02:39:49;7.97;;;4.88;;
68475;SDS011;55464;48.266;14.188;2022-09-13T02:42:20;6.43;;;4.90;;
68475;SDS011;55464;48.266;14.188;2022-09-13T02:44:51;6.40;;;4.72;;
68475;SDS011;55464;48.266;14.188;2022-09-13T02:53:13;5.70;;;4.43;;
68475;SDS011;55464;48.266;14.188;2022-09-13T03:01:20;6.10;;;4.28;;
68475;SDS011;55464;48.266;14.188;2022-09-13T03:03:46;11.80;;;5.10;;
68475;SDS011;55464;48.266;14.188;2022-09-13T03:06:12;6.22;;;4.72;;
68475;SDS011;55464;48.266;14.188;2022-09-13T03:08:45;5.82;;;4.18;;
68475;SDS011;55464;48.266;14.188;2022-09-13T03:16:47;6.75;;;5.57;;
68475;SDS011;55464;48.266;14.188;2022-09-13T03:30:13;6.35;;;4.82;;
68475;SDS011;55464;48.266;14.188;2022-09-13T03:35:26;12.85;;;4.93;;
68475;SDS011;55464;48.266;14.188;2022-09-13T03:38:18;7.68;;;5.03;;
68475;SDS011;55464;48.266;14.188;2022-09-13T03:41:12;5.38;;;4.30;;
68475;SDS011;55464;48.266;14.188;2022-09-13T03:43:49;5.72;;;4.93;;
68475;SDS011;55464;48.266;14.188;2022-09-13T03:46:41;5.88;;;4.47;;
68475;SDS011;55464;48.266;14.188;2022-09-13T03:49:13;5.95;;;4.60;;
68475;SDS011;55464;48.266;14.188;2022-09-13T03:51:42;8.02;;;4.53;;
68475;SDS011;55464;48.266;14.188;2022-09-13T03:54:11;5.88;;;4.45;;
68475;SDS011;55464;48.266;14.188;2022-09-13T03:56:41;7.20;;;4.90;;
68475;SDS011;55464;48.266;14.188;2022-09-13T03:59:06;6.10;;;4.85;;
68475;SDS011;55464;48.266;14.188;2022-09-13T04:01:32;6.50;;;5.22;;
68475;SDS011;55464;48.266;14.188;2022-09-13T04:03:58;4.57;;;4.10;;
68475;SDS011;55464;48.266;14.188;2022-09-13T04:06:24;6.38;;;4.65;;
68475;SDS011;55464;48.266;14.188;2022-09-13T04:08:50;6.53;;;4.45;;
68475;SDS011;55464;48.266;14.188;2022-09-13T04:11:15;7.25;;;4.38;;
68475;SDS011;55464;48.266;14.188;2022-09-13T04:13:41;6.55;;;4.60;;
68475;SDS011;55464;48.266;14.188;2022-09-13T04:16:07;8.05;;;3.90;;
68475;SDS011;55464;48.266;14.188;2022-09-13T04:18:33;4.68;;;4.00;;
68475;SDS011;55464;48.266;14.188;2022-09-13T04:20:59;7.35;;;4.90;;
68475;SDS011;55464;48.266;14.188;2022-09-13T04:23:26;6.60;;;4.22;;
68475;SDS011;55464;48.266;14.188;2022-09-13T04:25:53;4.95;;;4.07;;
68475;SDS011;55464;48.266;14.188;2022-09-13T04:28:19;8.00;;;4.35;;
68475;SDS011;55464;48.266;14.188;2022-09-13T04:30:47;6.00;;;4.15;;
68475;SDS011;55464;48.266;14.188;2022-09-13T04:33:13;4.72;;;3.70;;
68475;SDS011;55464;48.266;14.188;2022-09-13T04:35:41;4.35;;;3.58;;
68475;SDS011;55464;48.266;14.188;2022-09-13T04:38:07;4.25;;;3.85;;
68475;SDS011;55464;48.266;14.188;2022-09-13T04:40:33;6.97;;;3.95;;
68475;SDS011;55464;48.266;14.188;2022-09-13T04:43:01;4.40;;;3.80;;
68475;SDS011;55464;48.266;14.188;2022-09-13T04:45:27;5.53;;;3.90;;
68475;SDS011;55464;48.266;14.188;2022-09-13T04:47:53;5.93;;;3.58;;
68475;SDS011;55464;48.266;14.188;2022-09-13T04:50:20;4.40;;;3.67;;
68475;SDS011;55464;48.266;14.188;2022-09-13T04:52:46;4.38;;;3.97;;
68475;SDS011;55464;48.266;14.188;2022-09-13T04:55:12;3.83;;;3.53;;
68475;SDS011;55464;48.266;14.188;2022-09-13T04:57:38;6.97;;;4.10;;
68475;SDS011;55464;48.266;14.188;2022-09-13T05:00:05;4.57;;;3.78;;
68475;SDS011;55464;48.266;14.188;2022-09-13T05:02:31;4.15;;;3.58;;
68475;SDS011;55464;48.266;14.188;2022-09-13T05:04:57;6.47;;;3.50;;
68475;SDS011;55464;48.266;14.188;2022-09-13T05:07:23;5.30;;;4.00;;
68475;SDS011;55464;48.266;14.188;2022-09-13T05:09:48;6.07;;;3.90;;
68475;SDS011;55464;48.266;14.188;2022-09-13T05:12:14;5.63;;;3.60;;
68475;SDS011;55464;48.266;14.188;2022-09-13T05:14:40;6.65;;;4.07;;
68475;SDS011;55464;48.266;14.188;2022-09-13T05:17:06;5.32;;;3.70;;
68475;SDS011;55464;48.266;14.188;2022-09-13T05:19:31;4.95;;;3.47;;
68475;SDS011;55464;48.266;14.188;2022-09-13T05:21:57;3.65;;;3.35;;
68475;SDS011;55464;48.266;14.188;2022-09-13T05:24:23;7.95;;;3.53;;
68475;SDS011;55464;48.266;14.188;2022-09-13T05:26:48;4.00;;;3.60;;
68475;SDS011;55464;48.266;14.188;2022-09-13T05:29:14;6.32;;;4.60;;
68475;SDS011;55464;48.266;14.188;2022-09-13T05:31:40;4.03;;;3.53;;
68475;SDS011;55464;48.266;14.188;2022-09-13T05:34:11;5.15;;;4.18;;
68475;SDS011;55464;48.266;14.188;2022-09-13T05:36:44;5.90;;;4.32;;
68475;SDS011;55464;48.266;14.188;2022-09-13T05:39:13;4.55;;;4.00;;
68475;SDS011;55464;48.266;14.188;2022-09-13T05:41:41;7.47;;;3.40;;
68475;SDS011;55464;48.266;14.188;2022-09-13T05:44:07;5.13;;;4.13;;
68475;SDS011;55464;48.266;14.188;2022-09-13T05:46:33;6.85;;;4.40;;
68475;SDS011;55464;48.266;14.188;2022-09-13T05:48:59;8.65;;;4.28;;
68475;SDS011;55464;48.266;14.188;2022-09-13T05:51:25;9.05;;;4.82;;
68475;SDS011;55464;48.266;14.188;2022-09-13T05:53:52;6.03;;;4.93;;
68475;SDS011;55464;48.266;14.188;2022-09-13T05:56:22;10.90;;;5.57;;
68475;SDS011;55464;48.266;14.188;2022-09-13T05:58:50;7.22;;;5.25;;
68475;SDS011;55464;48.266;14.188;2022-09-13T06:01:17;7.45;;;5.20;;
68475;SDS011;55464;48.266;14.188;2022-09-13T06:03:46;6.25;;;5.13;;
68475;SDS011;55464;48.266;14.188;2022-09-13T06:06:13;5.75;;;5.15;;
68475;SDS011;55464;48.266;14.188;2022-09-13T06:08:39;5.97;;;4.93;;
68475;SDS011;55464;48.266;14.188;2022-09-13T06:11:06;6.57;;;5.38;;
68475;SDS011;55464;48.266;14.188;2022-09-13T06:13:33;6.18;;;5.10;;
68475;SDS011;55464;48.266;14.188;2022-09-13T06:15:59;6.28;;;5.57;;
68475;SDS011;55464;48.266;14.188;2022-09-13T06:18:26;6.03;;;5.03;;
68475;SDS011;55464;48.266;14.188;2022-09-13T06:21:25;6.75;;;5.22;;
68475;SDS011;55464;48.266;14.188;2022-09-13T06:23:48;7.25;;;4.97;;
68475;SDS011;55464;48.266;14.188;2022-09-13T06:26:16;5.55;;;4.50;;
68475;SDS011;55464;48.266;14.188;2022-09-13T06:28:46;5.80;;;4.55;;
68475;SDS011;55464;48.266;14.188;2022-09-13T06:31:13;6.50;;;5.10;;
68475;SDS011;55464;48.266;14.188;2022-09-13T06:33:41;6.20;;;5.18;;
68475;SDS011;55464;48.266;14.188;2022-09-13T06:36:17;5.95;;;4.53;;
68475;SDS011;55464;48.266;14.188;2022-09-13T06:38:44;7.57;;;4.38;;
68475;SDS011;55464;48.266;14.188;2022-09-13T06:41:11;9.00;;;4.15;;
68475;SDS011;55464;48.266;14.188;2022-09-13T06:43:38;5.93;;;4.53;;
68475;SDS011;55464;48.266;14.188;2022-09-13T06:46:08;7.93;;;4.80;;
68475;SDS011;55464;48.266;14.188;2022-09-13T06:48:38;7.22;;;4.60;;
68475;SDS011;55464;48.266;14.188;2022-09-13T06:51:05;7.90;;;3.72;;
68475;SDS011;55464;48.266;14.188;2022-09-13T06:53:34;6.90;;;4.57;;
68475;SDS011;55464;48.266;14.188;2022-09-13T06:58:34;5.40;;;4.90;;
68475;SDS011;55464;48.266;14.188;2022-09-13T07:01:07;9.98;;;4.90;;
68475;SDS011;55464;48.266;14.188;2022-09-13T07:03:35;6.07;;;4.82;;
68475;SDS011;55464;48.266;14.188;2022-09-13T07:06:05;6.50;;;4.75;;
68475;SDS011;55464;48.266;14.188;2022-09-13T07:08:35;7.07;;;5.45;;
68475;SDS011;55464;48.266;14.188;2022-09-13T07:11:01;8.18;;;5.25;;
68475;SDS011;55464;48.266;14.188;2022-09-13T07:13:27;6.80;;;4.78;;
68475;SDS011;55464;48.266;14.188;2022-09-13T07:15:52;6.28;;;4.70;;
68475;SDS011;55464;48.266;14.188;2022-09-13T07:18:18;5.90;;;5.30;;
68475;SDS011;55464;48.266;14.188;2022-09-13T07:20:44;6.50;;;4.70;;
68475;SDS011;55464;48.266;14.188;2022-09-13T07:23:09;6.22;;;5.10;;
68475;SDS011;55464;48.266;14.188;2022-09-13T07:25:35;5.95;;;4.90;;
68475;SDS011;55464;48.266;14.188;2022-09-13T07:28:00;8.35;;;5.22;;
68475;SDS011;55464;48.266;14.188;2022-09-13T07:30:26;6.90;;;5.50;;
68475;SDS011;55464;48.266;14.188;2022-09-13T07:32:52;8.07;;;4.93;;
68475;SDS011;55464;48.266;14.188;2022-09-13T07:35:17;6.85;;;5.10;;
68475;SDS011;55464;48.266;14.188;2022-09-13T07:37:43;8.38;;;5.35;;
68475;SDS011;55464;48.266;14.188;2022-09-13T07:40:10;5.80;;;5.07;;
68475;SDS011;55464;48.266;14.188;2022-09-13T07:42:36;6.03;;;5.07;;
68475;SDS011;55464;48.266;14.188;2022-09-13T07:45:02;6.32;;;5.32;;
68475;SDS011;55464;48.266;14.188;2022-09-13T07:47:31;6.57;;;5.28;;
68475;SDS011;55464;48.266;14.188;2022-09-13T07:49:57;8.98;;;5.93;;
68475;SDS011;55464;48.266;14.188;2022-09-13T07:52:23;7.95;;;6.13;;
68475;SDS011;55464;48.266;14.188;2022-09-13T07:54:49;9.20;;;5.93;;
68475;SDS011;55464;48.266;14.188;2022-09-13T07:57:14;7.60;;;5.57;;
68475;SDS011;55464;48.266;14.188;2022-09-13T07:59:40;14.63;;;5.32;;
68475;SDS011;55464;48.266;14.188;2022-09-13T08:02:07;7.72;;;6.18;;
68475;SDS011;55464;48.266;14.188;2022-09-13T08:04:33;7.28;;;5.97;;
68475;SDS011;55464;48.266;14.188;2022-09-13T08:06:59;8.75;;;6.53;;
68475;SDS011;55464;48.266;14.188;2022-09-13T08:09:25;10.70;;;7.18;;
68475;SDS011;55464;48.266;14.188;2022-09-13T08:11:51;7.88;;;6.80;;
68475;SDS011;55464;48.266;14.188;2022-09-13T08:14:17;8.35;;;6.88;;
68475;SDS011;55464;48.266;14.188;2022-09-13T08:16:45;8.63;;;6.68;;
68475;SDS011;55464;48.266;14.188;2022-09-13T08:19:12;7.47;;;6.53;;
68475;SDS011;55464;48.266;14.188;2022-09-13T08:21:43;8.15;;;6.15;;
68475;SDS011;55464;48.266;14.188;2022-09-13T08:24:19;7.50;;;6.20;;
68475;SDS011;55464;48.266;14.188;2022-09-13T08:26:45;6.93;;;6.18;;
68475;SDS011;55464;48.266;14.188;2022-09-13T08:29:12;6.68;;;5.72;;
68475;SDS011;55464;48.266;14.188;2022-09-13T08:31:38;7.03;;;5.95;;
68475;SDS011;55464;48.266;14.188;2022-09-13T08:34:05;7.10;;;6.28;;
68475;SDS011;55464;48.266;14.188;2022-09-13T08:36:35;8.02;;;5.65;;
68475;SDS011;55464;48.266;14.188;2022-09-13T08:39:00;10.13;;;6.20;;
68475;SDS011;55464;48.266;14.188;2022-09-13T08:44:13;7.03;;;5.72;;
68475;SDS011;55464;48.266;14.188;2022-09-13T08:46:50;6.55;;;5.53;;
68475;SDS011;55464;48.266;14.188;2022-09-13T08:49:38;9.25;;;6.38;;
68475;SDS011;55464;48.266;14.188;2022-09-13T08:52:15;6.22;;;5.28;;
68475;SDS011;55464;48.266;14.188;2022-09-13T08:55:42;5.68;;;5.07;;
68475;SDS011;55464;48.266;14.188;2022-09-13T09:01:05;6.68;;;5.47;;
68475;SDS011;55464;48.266;14.188;2022-09-13T09:06:33;7.57;;;5.80;;
68475;SDS011;55464;48.266;14.188;2022-09-13T09:09:04;5.45;;;4.55;;
68475;SDS011;55464;48.266;14.188;2022-09-13T09:14:16;6.00;;;5.40;;
68475;SDS011;55464;48.266;14.188;2022-09-13T09:16:59;6.53;;;5.53;;
68475;SDS011;55464;48.266;14.188;2022-09-13T09:19:33;5.88;;;5.22;;
68475;SDS011;55464;48.266;14.188;2022-09-13T09:22:08;5.75;;;5.13;;
68475;SDS011;55464;48.266;14.188;2022-09-13T09:24:43;6.55;;;4.95;;
68475;SDS011;55464;48.266;14.188;2022-09-13T09:27:14;6.93;;;5.93;;
68475;SDS011;55464;48.266;14.188;2022-09-13T09:29:41;7.13;;;5.43;;
68475;SDS011;55464;48.266;14.188;2022-09-13T09:39:48;7.47;;;6.50;;
68475;SDS011;55464;48.266;14.188;2022-09-13T09:42:15;9.43;;;6.18;;
68475;SDS011;55464;48.266;14.188;2022-09-13T09:44:45;6.40;;;5.55;;
68475;SDS011;55464;48.266;14.188;2022-09-13T09:47:17;8.95;;;5.53;;
68475;SDS011;55464;48.266;14.188;2022-09-13T09:49:46;7.88;;;5.50;;
68475;SDS011;55464;48.266;14.188;2022-09-13T09:52:49;5.97;;;4.78;;
68475;SDS011;55464;48.266;14.188;2022-09-13T09:58:04;4.95;;;4.47;;
68475;SDS011;55464;48.266;14.188;2022-09-13T10:00:36;5.20;;;4.65;;
68475;SDS011;55464;48.266;14.188;2022-09-13T10:03:18;6.30;;;4.35;;
68475;SDS011;55464;48.266;14.188;2022-09-13T10:05:45;4.97;;;4.30;;
68475;SDS011;55464;48.266;14.188;2022-09-13T10:08:23;4.80;;;4.10;;
68475;SDS011;55464;48.266;14.188;2022-09-13T10:10:53;5.25;;;3.85;;
68475;SDS011;55464;48.266;14.188;2022-09-13T10:13:21;4.40;;;3.97;;
68475;SDS011;55464;48.266;14.188;2022-09-13T10:16:01;5.18;;;4.20;;
68475;SDS011;55464;48.266;14.188;2022-09-13T10:18:30;4.93;;;4.10;;
68475;SDS011;55464;48.266;14.188;2022-09-13T10:21:04;5.10;;;3.78;;
68475;SDS011;55464;48.266;14.188;2022-09-13T10:23:34;5.05;;;4.30;;
68475;SDS011;55464;48.266;14.188;2022-09-13T10:28:29;4.28;;;3.88;;
68475;SDS011;55464;48.266;14.188;2022-09-13T10:30:58;5.20;;;4.40;;
68475;SDS011;55464;48.266;14.188;2022-09-13T10:36:04;4.90;;;4.28;;
68475;SDS011;55464;48.266;14.188;2022-09-13T10:38:36;5.30;;;4.03;;
68475;SDS011;55464;48.266;14.188;2022-09-13T10:41:05;4.05;;;3.65;;
68475;SDS011;55464;48.266;14.188;2022-09-13T10:43:33;3.63;;;3.33;;
68475;SDS011;55464;48.266;14.188;2022-09-13T10:46:00;4.57;;;4.03;;
68475;SDS011;55464;48.266;14.188;2022-09-13T10:48:28;5.47;;;3.63;;
68475;SDS011;55464;48.266;14.188;2022-09-13T10:51:02;4.32;;;3.75;;
68475;SDS011;55464;48.266;14.188;2022-09-13T10:53:37;3.95;;;3.60;;
68475;SDS011;55464;48.266;14.188;2022-09-13T10:56:05;4.32;;;3.85;;
68475;SDS011;55464;48.266;14.188;2022-09-13T10:58:43;4.35;;;3.95;;
68475;SDS011;55464;48.266;14.188;2022-09-13T11:09:42;4.97;;;3.75;;
68475;SDS011;55464;48.266;14.188;2022-09-13T11:12:51;4.10;;;3.70;;
68475;SDS011;55464;48.266;14.188;2022-09-13T11:15:36;3.45;;;3.15;;
68475;SDS011;55464;48.266;14.188;2022-09-13T11:39:38;3.90;;;3.35;;
68475;SDS011;55464;48.266;14.188;2022-09-13T11:45:23;4.82;;;3.28;;
68475;SDS011;55464;48.266;14.188;2022-09-13T11:56:32;3.70;;;3.28;;
68475;SDS011;55464;48.266;14.188;2022-09-13T11:59:39;3.53;;;3.22;;
68475;SDS011;55464;48.266;14.188;2022-09-13T12:05:21;3.03;;;2.83;;
68475;SDS011;55464;48.266;14.188;2022-09-13T12:08:09;6.72;;;2.85;;
68475;SDS011;55464;48.266;14.188;2022-09-13T12:10:54;2.80;;;2.60;;
68475;SDS011;55464;48.266;14.188;2022-09-13T12:13:30;1.90;;;1.80;;
68475;SDS011;55464;48.266;14.188;2022-09-13T12:16:04;2.03;;;1.83;;
68475;SDS011;55464;48.266;14.188;2022-09-13T12:21:08;1.90;;;1.80;;
68475;SDS011;55464;48.266;14.188;2022-09-13T12:31:35;2.15;;;2.05;;
68475;SDS011;55464;48.266;14.188;2022-09-13T12:34:02;2.10;;;2.00;;
68475;SDS011;55464;48.266;14.188;2022-09-13T12:39:26;2.17;;;2.08;;
68475;SDS011;55464;48.266;14.188;2022-09-13T12:48:08;2.33;;;2.10;;
68475;SDS011;55464;48.266;14.188;2022-09-13T13:05:00;2.58;;;1.92;;
68475;SDS011;55464;48.266;14.188;2022-09-13T13:07:41;1.80;;;1.70;;
68475;SDS011;55464;48.266;14.188;2022-09-13T13:10:34;2.35;;;2.15;;
68475;SDS011;55464;48.266;14.188;2022-09-13T13:13:11;2.28;;;2.00;;
68475;SDS011;55464;48.266;14.188;2022-09-13T13:15:58;2.20;;;2.00;;
68475;SDS011;55464;48.266;14.188;2022-09-13T13:18:27;3.25;;;2.00;;
68475;SDS011;55464;48.266;14.188;2022-09-13T13:21:21;2.28;;;2.08;;
68475;SDS011;55464;48.266;14.188;2022-09-13T13:26:45;1.90;;;1.80;;
68475;SDS011;55464;48.266;14.188;2022-09-13T13:29:21;3.00;;;1.65;;
68475;SDS011;55464;48.266;14.188;2022-09-13T13:39:36;5.10;;;2.08;;
68475;SDS011;55464;48.266;14.188;2022-09-13T13:42:29;2.17;;;1.80;;
68475;SDS011;55464;48.266;14.188;2022-09-13T13:52:33;2.47;;;2.25;;
68475;SDS011;55464;48.266;14.188;2022-09-13T13:55:02;3.03;;;2.00;;
68475;SDS011;55464;48.266;14.188;2022-09-13T13:58:02;2.17;;;1.98;;
68475;SDS011;55464;48.266;14.188;2022-09-13T14:00:32;4.07;;;3.35;;
68475;SDS011;55464;48.266;14.188;2022-09-13T14:05:44;3.10;;;2.03;;
68475;SDS011;55464;48.266;14.188;2022-09-13T14:19:45;3.25;;;2.15;;
68475;SDS011;55464;48.266;14.188;2022-09-13T14:24:47;2.55;;;1.63;;
68475;SDS011;55464;48.266;14.188;2022-09-13T14:27:31;3.25;;;2.10;;
68475;SDS011;55464;48.266;14.188;2022-09-13T14:30:03;2.00;;;1.90;;
68475;SDS011;55464;48.266;14.188;2022-09-13T14:32:54;2.30;;;1.90;;
68475;SDS011;55464;48.266;14.188;2022-09-13T14:35:34;1.92;;;1.80;;
68475;SDS011;55464;48.266;14.188;2022-09-13T14:38:12;2.40;;;2.20;;
68475;SDS011;55464;48.266;14.188;2022-09-13T14:40:47;2.25;;;2.15;;
68475;SDS011;55464;48.266;14.188;2022-09-13T14:43:15;2.50;;;1.90;;
68475;SDS011;55464;48.266;14.188;2022-09-13T14:45:46;3.15;;;2.00;;
68475;SDS011;55464;48.266;14.188;2022-09-13T14:51:19;2.58;;;2.20;;
68475;SDS011;55464;48.266;14.188;2022-09-13T14:53:58;2.28;;;2.08;;
68475;SDS011;55464;48.266;14.188;2022-09-13T14:56:34;2.45;;;2.25;;
68475;SDS011;55464;48.266;14.188;2022-09-13T14:59:17;2.60;;;2.38;;
68475;SDS011;55464;48.266;14.188;2022-09-13T15:01:53;4.07;;;2.47;;
68475;SDS011;55464;48.266;14.188;2022-09-13T15:04:20;2.75;;;2.45;;
68475;SDS011;55464;48.266;14.188;2022-09-13T15:06:48;2.33;;;2.13;;
68475;SDS011;55464;48.266;14.188;2022-09-13T15:09:40;2.67;;;2.47;;
68475;SDS011;55464;48.266;14.188;2022-09-13T15:12:17;3.65;;;2.50;;
68475;SDS011;55464;48.266;14.188;2022-09-13T15:23:38;2.80;;;2.50;;
68475;SDS011;55464;48.266;14.188;2022-09-13T15:26:25;5.32;;;2.47;;
68475;SDS011;55464;48.266;14.188;2022-09-13T15:28:51;3.63;;;2.50;;
68475;SDS011;55464;48.266;14.188;2022-09-13T15:31:25;3.95;;;2.33;;
68475;SDS011;55464;48.266;14.188;2022-09-13T15:36:46;2.38;;;2.17;;
68475;SDS011;55464;48.266;14.188;2022-09-13T15:42:25;2.97;;;2.30;;
68475;SDS011;55464;48.266;14.188;2022-09-13T15:44:51;3.22;;;2.80;;
68475;SDS011;55464;48.266;14.188;2022-09-13T15:47:17;2.42;;;2.15;;
68475;SDS011;55464;48.266;14.188;2022-09-13T15:49:47;2.63;;;2.20;;
68475;SDS011;55464;48.266;14.188;2022-09-13T15:52:15;3.38;;;2.38;;
68475;SDS011;55464;48.266;14.188;2022-09-13T15:54:42;3.55;;;2.20;;
68475;SDS011;55464;48.266;14.188;2022-09-13T15:59:52;3.85;;;2.92;;
68475;SDS011;55464;48.266;14.188;2022-09-13T16:04:46;2.60;;;2.40;;
68475;SDS011;55464;48.266;14.188;2022-09-13T16:07:12;2.75;;;2.55;;
68475;SDS011;55464;48.266;14.188;2022-09-13T16:09:38;2.67;;;2.40;;
68475;SDS011;55464;48.266;14.188;2022-09-13T16:12:05;4.00;;;2.65;;
68475;SDS011;55464;48.266;14.188;2022-09-13T16:14:31;3.58;;;2.90;;
68475;SDS011;55464;48.266;14.188;2022-09-13T16:16:58;2.83;;;2.60;;
68475;SDS011;55464;48.266;14.188;2022-09-13T16:19:26;3.50;;;2.47;;
68475;SDS011;55464;48.266;14.188;2022-09-13T16:21:52;3.20;;;2.90;;
68475;SDS011;55464;48.266;14.188;2022-09-13T16:24:18;3.53;;;2.45;;
68475;SDS011;55464;48.266;14.188;2022-09-13T16:26:43;2.95;;;2.72;;
68475;SDS011;55464;48.266;14.188;2022-09-13T16:29:10;3.83;;;2.78;;
68475;SDS011;55464;48.266;14.188;2022-09-13T16:31:36;2.78;;;2.50;;
68475;SDS011;55464;48.266;14.188;2022-09-13T16:34:02;2.80;;;2.53;;
68475;SDS011;55464;48.266;14.188;2022-09-13T16:36:28;2.75;;;2.50;;
68475;SDS011;55464;48.266;14.188;2022-09-13T16:38:55;3.28;;;2.75;;
68475;SDS011;55464;48.266;14.188;2022-09-13T16:41:21;2.90;;;2.70;;
68475;SDS011;55464;48.266;14.188;2022-09-13T16:43:47;3.17;;;2.47;;
68475;SDS011;55464;48.266;14.188;2022-09-13T16:46:13;4.95;;;2.95;;
68475;SDS011;55464;48.266;14.188;2022-09-13T16:48:39;4.57;;;2.80;;
68475;SDS011;55464;48.266;14.188;2022-09-13T16:51:06;5.45;;;3.20;;
68475;SDS011;55464;48.266;14.188;2022-09-13T16:53:34;4.22;;;3.08;;
68475;SDS011;55464;48.266;14.188;2022-09-13T16:56:09;2.90;;;2.67;;
68475;SDS011;55464;48.266;14.188;2022-09-13T16:58:37;3.33;;;2.92;;
68475;SDS011;55464;48.266;14.188;2022-09-13T17:01:05;4.28;;;2.83;;
68475;SDS011;55464;48.266;14.188;2022-09-13T17:03:31;3.45;;;3.15;;
68475;SDS011;55464;48.266;14.188;2022-09-13T17:05:59;4.55;;;3.38;;
68475;SDS011;55464;48.266;14.188;2022-09-13T17:08:25;3.60;;;3.30;;
68475;SDS011;55464;48.266;14.188;2022-09-13T17:10:51;3.75;;;3.17;;
68475;SDS011;55464;48.266;14.188;2022-09-13T17:13:17;4.82;;;3.13;;
68475;SDS011;55464;48.266;14.188;2022-09-13T17:15:43;3.15;;;2.67;;
68475;SDS011;55464;48.266;14.188;2022-09-13T17:18:09;3.40;;;3.00;;
68475;SDS011;55464;48.266;14.188;2022-09-13T17:20:34;5.03;;;3.03;;
68475;SDS011;55464;48.266;14.188;2022-09-13T17:23:00;2.72;;;2.50;;
68475;SDS011;55464;48.266;14.188;2022-09-13T17:25:26;4.93;;;3.45;;
68475;SDS011;55464;48.266;14.188;2022-09-13T17:27:51;4.72;;;2.72;;
68475;SDS011;55464;48.266;14.188;2022-09-13T17:30:17;3.20;;;2.90;;
68475;SDS011;55464;48.266;14.188;2022-09-13T17:32:42;3.35;;;3.05;;
68475;SDS011;55464;48.266;14.188;2022-09-13T17:35:08;3.63;;;2.90;;
68475;SDS011;55464;48.266;14.188;2022-09-13T17:37:35;3.20;;;2.80;;
68475;SDS011;55464;48.266;14.188;2022-09-13T17:40:01;3.83;;;2.90;;
68475;SDS011;55464;48.266;14.188;2022-09-13T17:42:27;3.28;;;3.03;;
68475;SDS011;55464;48.266;14.188;2022-09-13T17:44:53;4.22;;;3.08;;
68475;SDS011;55464;48.266;14.188;2022-09-13T17:47:18;3.20;;;2.90;;
68475;SDS011;55464;48.266;14.188;2022-09-13T17:49:44;3.17;;;2.88;;
68475;SDS011;55464;48.266;14.188;2022-09-13T17:52:11;2.95;;;2.75;;
68475;SDS011;55464;48.266;14.188;2022-09-13T17:54:37;8.65;;;3.20;;
68475;SDS011;55464;48.266;14.188;2022-09-13T17:57:02;5.22;;;3.40;;
68475;SDS011;55464;48.266;14.188;2022-09-13T17:59:28;3.67;;;3.30;;
68475;SDS011;55464;48.266;14.188;2022-09-13T18:01:56;4.43;;;3.42;;
68475;SDS011;55464;48.266;14.188;2022-09-13T18:04:24;3.47;;;3.15;;
68475;SDS011;55464;48.266;14.188;2022-09-13T18:06:51;6.03;;;3.30;;
68475;SDS011;55464;48.266;14.188;2022-09-13T18:09:17;4.75;;;3.47;;
68475;SDS011;55464;48.266;14.188;2022-09-13T18:11:43;6.53;;;3.00;;
68475;SDS011;55464;48.266;14.188;2022-09-13T18:14:10;4.28;;;3.55;;
68475;SDS011;55464;48.266;14.188;2022-09-13T18:16:40;4.93;;;3.20;;
68475;SDS011;55464;48.266;14.188;2022-09-13T18:19:06;3.60;;;3.30;;
68475;SDS011;55464;48.266;14.188;2022-09-13T18:21:32;3.67;;;3.38;;
68475;SDS011;55464;48.266;14.188;2022-09-13T18:23:58;5.13;;;3.08;;
68475;SDS011;55464;48.266;14.188;2022-09-13T18:26:28;3.58;;;3.28;;
68475;SDS011;55464;48.266;14.188;2022-09-13T18:28:57;4.78;;;3.58;;
68475;SDS011;55464;48.266;14.188;2022-09-13T18:31:26;3.80;;;3.50;;
68475;SDS011;55464;48.266;14.188;2022-09-13T18:33:53;3.33;;;3.05;;
68475;SDS011;55464;48.266;14.188;2022-09-13T18:36:21;4.15;;;3.50;;
68475;SDS011;55464;48.266;14.188;2022-09-13T18:38:47;4.13;;;3.72;;
68475;SDS011;55464;48.266;14.188;2022-09-13T18:43:39;4.57;;;3.40;;
68475;SDS011;55464;48.266;14.188;2022-09-13T18:46:10;3.50;;;3.20;;